sensor_id;sensor_type;location;lat;lon;timestamp;temperature;humidity
29813;DHT22;16707;48.106;11.548;2022-09-09T00:02:23;13.60;99.90
29813;DHT22;16707;48.106;11.548;2022-09-09T00:05:08;13.60;99.90
29813;DHT22;16707;48.106;11.548;2022-09-09T00:07:47;13.60;99.90
29813;DHT22;16707;48.106;11.548;2022-09-09T00:10:20;13.60;99.90
29813;DHT22;16707;48.106;11.548;2022-09-09T00:12:57;13.60;99.90
29813;DHT22;16707;48.106;11.548;2022-09-09T00:15:38;13.60;99.90
29813;DHT22;16707;48.106;11.548;2022-09-09T00:18:23;13.70;99.90
29813;DHT22;16707;48.106;11.548;2022-09-09T00:21:00;13.70;99.90
29813;DHT22;16707;48.106;11.548;2022-09-09T00:23:37;13.60;99.90
29813;DHT22;16707;48.106;11.548;2022-09-09T00:26:09;13.60;99.90
29813;DHT22;16707;48.106;11.548;2022-09-09T00:28:52;13.70;99.90
29813;DHT22;16707;48.106;11.548;2022-09-09T00:31:33;13.70;99.90
29813;DHT22;16707;48.106;11.548;2022-09-09T00:34:12;13.80;99.90
29813;DHT22;16707;48.106;11.548;2022-09-09T00:36:43;13.80;99.90
29813;DHT22;16707;48.106;11.548;2022-09-09T00:39:27;13.90;99.90
29813;DHT22;16707;48.106;11.548;2022-09-09T00:42:13;13.90;99.90
29813;DHT22;16707;48.106;11.548;2022-09-09T00:44:53;13.90;99.90
29813;DHT22;16707;48.106;11.548;2022-09-09T00:47:43;14.00;99.90
29813;DHT22;16707;48.106;11.548;2022-09-09T00:50:34;14.00;99.90
29813;DHT22;16707;48.106;11.548;2022-09-09T00:53:27;14.10;99.90
29813;DHT22;16707;48.106;11.548;2022-09-09T00:56:08;14.20;99.90
29813;DHT22;16707;48.106;11.548;2022-09-09T00:58:42;14.10;99.90
29813;DHT22;16707;48.106;11.548;2022-09-09T01:01:16;14.10;99.90
29813;DHT22;16707;48.106;11.548;2022-09-09T01:03:51;14.10;99.90
29813;DHT22;16707;48.106;11.548;2022-09-09T01:06:27;14.00;99.90
29813;DHT22;16707;48.106;11.548;2022-09-09T01:09:17;14.10;99.90
29813;DHT22;16707;48.106;11.548;2022-09-09T01:12:01;14.20;99.90
29813;DHT22;16707;48.106;11.548;2022-09-09T01:14:38;14.30;99.90
29813;DHT22;16707;48.106;11.548;2022-09-09T01:17:24;14.40;99.90
29813;DHT22;16707;48.106;11.548;2022-09-09T01:20:13;14.40;99.90
29813;DHT22;16707;48.106;11.548;2022-09-09T01:22:51;14.50;99.90
29813;DHT22;16707;48.106;11.548;2022-09-09T01:28:53;14.50;99.90
29813;DHT22;16707;48.106;11.548;2022-09-09T01:31:38;14.70;99.90
29813;DHT22;16707;48.106;11.548;2022-09-09T01:34:15;14.80;99.90
29813;DHT22;16707;48.106;11.548;2022-09-09T01:36:48;14.90;99.90
29813;DHT22;16707;48.106;11.548;2022-09-09T01:39:40;14.90;99.90
29813;DHT22;16707;48.106;11.548;2022-09-09T01:42:18;15.00;99.90
29813;DHT22;16707;48.106;11.548;2022-09-09T01:45:00;14.90;99.90
29813;DHT22;16707;48.106;11.548;2022-09-09T01:47:31;14.90;99.90
29813;DHT22;16707;48.106;11.548;2022-09-09T01:50:12;14.80;99.90
29813;DHT22;16707;48.106;11.548;2022-09-09T01:52:44;14.70;99.90
29813;DHT22;16707;48.106;11.548;2022-09-09T01:55:19;14.70;99.90
29813;DHT22;16707;48.106;11.548;2022-09-09T01:58:04;14.50;99.90
29813;DHT22;16707;48.106;11.548;2022-09-09T02:00:56;14.40;99.90
29813;DHT22;16707;48.106;11.548;2022-09-09T02:03:33;14.30;99.90
29813;DHT22;16707;48.106;11.548;2022-09-09T02:06:11;14.30;99.90
29813;DHT22;16707;48.106;11.548;2022-09-09T02:08:49;14.30;99.90
29813;DHT22;16707;48.106;11.548;2022-09-09T02:11:22;14.30;99.90
29813;DHT22;16707;48.106;11.548;2022-09-09T02:14:00;14.30;99.90
29813;DHT22;16707;48.106;11.548;2022-09-09T02:16:47;14.30;99.90
29813;DHT22;16707;48.106;11.548;2022-09-09T02:19:24;14.30;99.90
29813;DHT22;16707;48.106;11.548;2022-09-09T02:22:03;14.20;99.90
29813;DHT22;16707;48.106;11.548;2022-09-09T02:24:45;14.30;99.90
29813;DHT22;16707;48.106;11.548;2022-09-09T02:27:16;14.30;99.90
29813;DHT22;16707;48.106;11.548;2022-09-09T02:29:53;14.30;99.90
29813;DHT22;16707;48.106;11.548;2022-09-09T02:32:32;14.20;99.90
29813;DHT22;16707;48.106;11.548;2022-09-09T02:35:05;14.10;99.90
29813;DHT22;16707;48.106;11.548;2022-09-09T02:37:44;14.10;99.90
29813;DHT22;16707;48.106;11.548;2022-09-09T02:40:21;14.10;99.90
29813;DHT22;16707;48.106;11.548;2022-09-09T02:42:57;14.20;99.90
29813;DHT22;16707;48.106;11.548;2022-09-09T02:45:29;14.30;99.90
29813;DHT22;16707;48.106;11.548;2022-09-09T02:48:13;14.30;99.90
29813;DHT22;16707;48.106;11.548;2022-09-09T02:50:52;14.40;99.90
29813;DHT22;16707;48.106;11.548;2022-09-09T02:53:27;14.40;99.90
29813;DHT22;16707;48.106;11.548;2022-09-09T02:56:09;14.40;99.90
29813;DHT22;16707;48.106;11.548;2022-09-09T02:58:43;14.40;99.90
29813;DHT22;16707;48.106;11.548;2022-09-09T03:01:15;14.50;99.90
29813;DHT22;16707;48.106;11.548;2022-09-09T03:03:52;14.40;99.90
29813;DHT22;16707;48.106;11.548;2022-09-09T03:06:27;14.40;99.90
29813;DHT22;16707;48.106;11.548;2022-09-09T03:09:03;14.40;99.90
29813;DHT22;16707;48.106;11.548;2022-09-09T03:11:37;14.40;99.90
29813;DHT22;16707;48.106;11.548;2022-09-09T03:14:09;14.30;99.90
29813;DHT22;16707;48.106;11.548;2022-09-09T03:16:45;14.20;99.90
29813;DHT22;16707;48.106;11.548;2022-09-09T03:19:20;14.20;99.90
29813;DHT22;16707;48.106;11.548;2022-09-09T03:21:53;14.20;99.90
29813;DHT22;16707;48.106;11.548;2022-09-09T03:24:28;14.10;99.90
29813;DHT22;16707;48.106;11.548;2022-09-09T03:27:01;14.10;99.90
29813;DHT22;16707;48.106;11.548;2022-09-09T03:29:37;14.00;99.90
29813;DHT22;16707;48.106;11.548;2022-09-09T03:32:10;13.90;99.90
29813;DHT22;16707;48.106;11.548;2022-09-09T03:34:45;13.70;99.90
29813;DHT22;16707;48.106;11.548;2022-09-09T03:37:13;13.60;99.90
29813;DHT22;16707;48.106;11.548;2022-09-09T03:39:43;13.50;99.90
29813;DHT22;16707;48.106;11.548;2022-09-09T03:42:12;13.50;99.90
29813;DHT22;16707;48.106;11.548;2022-09-09T03:44:56;13.50;99.90
29813;DHT22;16707;48.106;11.548;2022-09-09T03:47:28;13.50;99.90
29813;DHT22;16707;48.106;11.548;2022-09-09T03:49:57;13.40;99.90
29813;DHT22;16707;48.106;11.548;2022-09-09T03:52:28;13.40;99.90
29813;DHT22;16707;48.106;11.548;2022-09-09T03:54:57;13.40;99.90
29813;DHT22;16707;48.106;11.548;2022-09-09T03:57:34;13.50;99.90
29813;DHT22;16707;48.106;11.548;2022-09-09T04:00:11;13.60;99.90
29813;DHT22;16707;48.106;11.548;2022-09-09T04:02:44;13.70;99.90
29813;DHT22;16707;48.106;11.548;2022-09-09T04:05:18;13.70;99.90
29813;DHT22;16707;48.106;11.548;2022-09-09T04:07:48;13.90;99.90
29813;DHT22;16707;48.106;11.548;2022-09-09T04:10:16;13.90;99.90
29813;DHT22;16707;48.106;11.548;2022-09-09T04:12:49;14.00;99.90
29813;DHT22;16707;48.106;11.548;2022-09-09T04:15:24;14.10;99.90
29813;DHT22;16707;48.106;11.548;2022-09-09T04:17:59;14.20;99.90
29813;DHT22;16707;48.106;11.548;2022-09-09T04:20:29;14.20;99.90
29813;DHT22;16707;48.106;11.548;2022-09-09T04:22:58;14.20;99.90
29813;DHT22;16707;48.106;11.548;2022-09-09T04:25:27;14.20;99.90
29813;DHT22;16707;48.106;11.548;2022-09-09T04:28:01;14.20;99.90
29813;DHT22;16707;48.106;11.548;2022-09-09T04:30:35;14.10;99.90
29813;DHT22;16707;48.106;11.548;2022-09-09T04:33:05;14.10;99.90
29813;DHT22;16707;48.106;11.548;2022-09-09T04:35:37;14.00;99.90
29813;DHT22;16707;48.106;11.548;2022-09-09T04:38:12;13.90;99.90
29813;DHT22;16707;48.106;11.548;2022-09-09T04:40:46;13.80;99.90
29813;DHT22;16707;48.106;11.548;2022-09-09T04:43:16;13.70;99.90
29813;DHT22;16707;48.106;11.548;2022-09-09T04:45:56;13.70;99.90
29813;DHT22;16707;48.106;11.548;2022-09-09T04:48:25;13.60;99.90
29813;DHT22;16707;48.106;11.548;2022-09-09T04:50:59;13.50;99.90
29813;DHT22;16707;48.106;11.548;2022-09-09T04:53:34;13.40;99.90
29813;DHT22;16707;48.106;11.548;2022-09-09T04:56:06;13.40;99.90
29813;DHT22;16707;48.106;11.548;2022-09-09T04:58:36;13.40;99.90
29813;DHT22;16707;48.106;11.548;2022-09-09T05:01:11;13.50;99.90
29813;DHT22;16707;48.106;11.548;2022-09-09T05:03:42;13.90;99.90
29813;DHT22;16707;48.106;11.548;2022-09-09T05:06:28;14.10;99.90
29813;DHT22;16707;48.106;11.548;2022-09-09T05:09:00;14.10;99.90
29813;DHT22;16707;48.106;11.548;2022-09-09T05:11:32;14.00;99.90
29813;DHT22;16707;48.106;11.548;2022-09-09T05:14:07;14.00;99.90
29813;DHT22;16707;48.106;11.548;2022-09-09T05:16:37;13.90;99.90
29813;DHT22;16707;48.106;11.548;2022-09-09T05:19:14;13.90;99.90
29813;DHT22;16707;48.106;11.548;2022-09-09T05:21:49;14.00;99.90
29813;DHT22;16707;48.106;11.548;2022-09-09T05:24:17;13.90;99.90
29813;DHT22;16707;48.106;11.548;2022-09-09T05:26:49;13.90;99.90
29813;DHT22;16707;48.106;11.548;2022-09-09T05:29:16;13.80;99.90
29813;DHT22;16707;48.106;11.548;2022-09-09T05:31:48;13.80;99.90
29813;DHT22;16707;48.106;11.548;2022-09-09T05:34:29;13.90;99.90
29813;DHT22;16707;48.106;11.548;2022-09-09T05:36:57;13.90;99.90
29813;DHT22;16707;48.106;11.548;2022-09-09T05:39:25;14.20;99.90
29813;DHT22;16707;48.106;11.548;2022-09-09T05:41:52;14.10;99.90
29813;DHT22;16707;48.106;11.548;2022-09-09T05:44:22;14.10;99.90
29813;DHT22;16707;48.106;11.548;2022-09-09T05:46:53;14.30;99.90
29813;DHT22;16707;48.106;11.548;2022-09-09T05:49:24;14.60;99.90
29813;DHT22;16707;48.106;11.548;2022-09-09T05:51:54;14.70;99.90
29813;DHT22;16707;48.106;11.548;2022-09-09T05:54:22;14.70;99.90
29813;DHT22;16707;48.106;11.548;2022-09-09T05:56:52;14.70;99.90
29813;DHT22;16707;48.106;11.548;2022-09-09T05:59:26;14.80;99.90
29813;DHT22;16707;48.106;11.548;2022-09-09T06:01:58;14.80;99.90
29813;DHT22;16707;48.106;11.548;2022-09-09T06:04:28;14.90;99.90
29813;DHT22;16707;48.106;11.548;2022-09-09T06:06:58;14.90;99.90
29813;DHT22;16707;48.106;11.548;2022-09-09T06:09:32;14.90;99.90
29813;DHT22;16707;48.106;11.548;2022-09-09T06:12:07;15.00;99.90
29813;DHT22;16707;48.106;11.548;2022-09-09T06:14:37;15.10;99.90
29813;DHT22;16707;48.106;11.548;2022-09-09T06:17:07;15.40;99.90
29813;DHT22;16707;48.106;11.548;2022-09-09T06:19:38;15.60;99.90
29813;DHT22;16707;48.106;11.548;2022-09-09T06:22:08;15.80;99.90
29813;DHT22;16707;48.106;11.548;2022-09-09T06:24:39;15.80;99.90
29813;DHT22;16707;48.106;11.548;2022-09-09T06:27:09;15.90;99.90
29813;DHT22;16707;48.106;11.548;2022-09-09T06:29:39;16.00;99.90
29813;DHT22;16707;48.106;11.548;2022-09-09T06:32:13;16.00;99.90
29813;DHT22;16707;48.106;11.548;2022-09-09T06:34:43;16.00;99.90
29813;DHT22;16707;48.106;11.548;2022-09-09T06:37:11;16.10;99.90
29813;DHT22;16707;48.106;11.548;2022-09-09T06:39:46;16.10;99.90
29813;DHT22;16707;48.106;11.548;2022-09-09T06:42:14;16.20;99.90
29813;DHT22;16707;48.106;11.548;2022-09-09T06:44:44;16.30;99.90
29813;DHT22;16707;48.106;11.548;2022-09-09T06:47:13;16.40;99.90
29813;DHT22;16707;48.106;11.548;2022-09-09T06:49:40;16.50;99.90
29813;DHT22;16707;48.106;11.548;2022-09-09T06:52:10;16.70;99.90
29813;DHT22;16707;48.106;11.548;2022-09-09T06:54:37;16.90;99.90
29813;DHT22;16707;48.106;11.548;2022-09-09T06:57:08;17.00;99.90
29813;DHT22;16707;48.106;11.548;2022-09-09T06:59:35;17.30;99.90
29813;DHT22;16707;48.106;11.548;2022-09-09T07:02:02;17.40;99.90
29813;DHT22;16707;48.106;11.548;2022-09-09T07:04:31;17.60;99.90
29813;DHT22;16707;48.106;11.548;2022-09-09T07:06:59;17.70;99.90
29813;DHT22;16707;48.106;11.548;2022-09-09T07:09:30;17.60;99.90
29813;DHT22;16707;48.106;11.548;2022-09-09T07:11:59;17.50;99.90
29813;DHT22;16707;48.106;11.548;2022-09-09T07:14:26;17.40;99.90
29813;DHT22;16707;48.106;11.548;2022-09-09T07:17:00;17.30;99.90
29813;DHT22;16707;48.106;11.548;2022-09-09T07:19:27;17.20;99.90
29813;DHT22;16707;48.106;11.548;2022-09-09T07:21:57;17.20;99.90
29813;DHT22;16707;48.106;11.548;2022-09-09T07:24:30;16.90;99.90
29813;DHT22;16707;48.106;11.548;2022-09-09T07:27:00;16.80;99.90
29813;DHT22;16707;48.106;11.548;2022-09-09T07:29:29;16.90;99.90
29813;DHT22;16707;48.106;11.548;2022-09-09T07:31:59;16.90;99.90
29813;DHT22;16707;48.106;11.548;2022-09-09T07:34:28;17.00;99.90
29813;DHT22;16707;48.106;11.548;2022-09-09T07:36:56;17.00;99.90
29813;DHT22;16707;48.106;11.548;2022-09-09T07:39:29;17.10;99.90
29813;DHT22;16707;48.106;11.548;2022-09-09T07:41:59;17.20;99.90
29813;DHT22;16707;48.106;11.548;2022-09-09T07:44:28;17.50;99.90
29813;DHT22;16707;48.106;11.548;2022-09-09T07:46:57;17.70;99.90
29813;DHT22;16707;48.106;11.548;2022-09-09T07:49:28;18.10;99.90
29813;DHT22;16707;48.106;11.548;2022-09-09T07:51:55;18.30;99.90
29813;DHT22;16707;48.106;11.548;2022-09-09T07:54:23;18.30;99.90
29813;DHT22;16707;48.106;11.548;2022-09-09T07:57:01;18.40;99.90
29813;DHT22;16707;48.106;11.548;2022-09-09T07:59:33;18.40;99.90
29813;DHT22;16707;48.106;11.548;2022-09-09T08:02:05;18.40;99.90
29813;DHT22;16707;48.106;11.548;2022-09-09T08:04:38;18.50;99.90
29813;DHT22;16707;48.106;11.548;2022-09-09T08:07:11;18.50;99.90
29813;DHT22;16707;48.106;11.548;2022-09-09T08:09:42;18.50;99.90
29813;DHT22;16707;48.106;11.548;2022-09-09T08:12:12;18.60;99.90
29813;DHT22;16707;48.106;11.548;2022-09-09T08:14:39;18.80;99.90
29813;DHT22;16707;48.106;11.548;2022-09-09T08:17:07;18.80;99.90
29813;DHT22;16707;48.106;11.548;2022-09-09T08:19:35;18.80;99.90
29813;DHT22;16707;48.106;11.548;2022-09-09T08:22:05;18.80;99.90
29813;DHT22;16707;48.106;11.548;2022-09-09T08:24:33;18.80;99.90
29813;DHT22;16707;48.106;11.548;2022-09-09T08:27:01;19.00;99.90
29813;DHT22;16707;48.106;11.548;2022-09-09T08:29:38;18.90;99.90
29813;DHT22;16707;48.106;11.548;2022-09-09T08:32:08;18.90;99.90
29813;DHT22;16707;48.106;11.548;2022-09-09T08:34:44;19.10;99.90
29813;DHT22;16707;48.106;11.548;2022-09-09T08:37:15;19.30;99.90
29813;DHT22;16707;48.106;11.548;2022-09-09T08:39:47;19.40;99.90
29813;DHT22;16707;48.106;11.548;2022-09-09T08:42:30;19.30;99.90
29813;DHT22;16707;48.106;11.548;2022-09-09T08:45:13;19.30;99.90
29813;DHT22;16707;48.106;11.548;2022-09-09T08:47:54;19.10;99.90
29813;DHT22;16707;48.106;11.548;2022-09-09T08:50:30;18.80;99.90
29813;DHT22;16707;48.106;11.548;2022-09-09T08:53:04;18.70;99.90
29813;DHT22;16707;48.106;11.548;2022-09-09T08:55:45;18.60;99.90
29813;DHT22;16707;48.106;11.548;2022-09-09T08:58:18;18.50;99.90
29813;DHT22;16707;48.106;11.548;2022-09-09T09:01:17;18.50;99.90
29813;DHT22;16707;48.106;11.548;2022-09-09T09:03:57;18.50;99.90
29813;DHT22;16707;48.106;11.548;2022-09-09T09:06:39;18.60;99.90
29813;DHT22;16707;48.106;11.548;2022-09-09T09:09:22;18.70;99.90
29813;DHT22;16707;48.106;11.548;2022-09-09T09:12:14;18.90;99.90
29813;DHT22;16707;48.106;11.548;2022-09-09T09:14:50;19.00;99.90
29813;DHT22;16707;48.106;11.548;2022-09-09T09:17:20;19.00;99.90
29813;DHT22;16707;48.106;11.548;2022-09-09T09:19:50;18.90;99.90
29813;DHT22;16707;48.106;11.548;2022-09-09T09:22:20;19.00;99.90
29813;DHT22;16707;48.106;11.548;2022-09-09T09:24:55;19.00;99.90
29813;DHT22;16707;48.106;11.548;2022-09-09T09:27:31;19.20;99.90
29813;DHT22;16707;48.106;11.548;2022-09-09T09:30:12;20.00;99.90
29813;DHT22;16707;48.106;11.548;2022-09-09T09:32:51;20.60;99.90
29813;DHT22;16707;48.106;11.548;2022-09-09T09:35:20;20.50;99.90
29813;DHT22;16707;48.106;11.548;2022-09-09T09:37:48;20.70;99.90
29813;DHT22;16707;48.106;11.548;2022-09-09T09:40:18;20.60;99.90
29813;DHT22;16707;48.106;11.548;2022-09-09T09:42:52;20.80;99.90
29813;DHT22;16707;48.106;11.548;2022-09-09T09:45:31;20.70;99.90
29813;DHT22;16707;48.106;11.548;2022-09-09T09:48:12;20.50;99.90
29813;DHT22;16707;48.106;11.548;2022-09-09T09:50:47;20.30;99.90
29813;DHT22;16707;48.106;11.548;2022-09-09T09:53:23;20.30;99.90
29813;DHT22;16707;48.106;11.548;2022-09-09T09:55:57;20.30;99.90
29813;DHT22;16707;48.106;11.548;2022-09-09T09:58:29;20.10;99.90
29813;DHT22;16707;48.106;11.548;2022-09-09T10:01:20;20.20;99.90
29813;DHT22;16707;48.106;11.548;2022-09-09T10:03:55;20.20;99.90
29813;DHT22;16707;48.106;11.548;2022-09-09T10:06:32;20.10;99.90
29813;DHT22;16707;48.106;11.548;2022-09-09T10:09:01;20.30;99.90
29813;DHT22;16707;48.106;11.548;2022-09-09T10:11:46;20.40;99.90
29813;DHT22;16707;48.106;11.548;2022-09-09T10:14:20;20.20;99.90
29813;DHT22;16707;48.106;11.548;2022-09-09T10:17:03;20.10;99.90
29813;DHT22;16707;48.106;11.548;2022-09-09T10:19:41;20.00;99.90
29813;DHT22;16707;48.106;11.548;2022-09-09T10:22:23;19.70;99.90
29813;DHT22;16707;48.106;11.548;2022-09-09T10:25:10;19.50;99.90
29813;DHT22;16707;48.106;11.548;2022-09-09T10:27:57;19.10;99.90
29813;DHT22;16707;48.106;11.548;2022-09-09T10:30:43;18.90;99.90
29813;DHT22;16707;48.106;11.548;2022-09-09T10:33:24;18.80;99.90
29813;DHT22;16707;48.106;11.548;2022-09-09T10:36:13;18.90;99.90
29813;DHT22;16707;48.106;11.548;2022-09-09T10:38:42;19.30;99.90
29813;DHT22;16707;48.106;11.548;2022-09-09T10:41:19;19.40;99.90
29813;DHT22;16707;48.106;11.548;2022-09-09T10:44:13;19.60;99.90
29813;DHT22;16707;48.106;11.548;2022-09-09T10:46:52;19.80;99.90
29813;DHT22;16707;48.106;11.548;2022-09-09T10:49:46;20.10;99.90
29813;DHT22;16707;48.106;11.548;2022-09-09T10:52:22;20.10;99.90
29813;DHT22;16707;48.106;11.548;2022-09-09T10:54:57;19.90;99.90
29813;DHT22;16707;48.106;11.548;2022-09-09T10:57:31;19.90;99.90
29813;DHT22;16707;48.106;11.548;2022-09-09T11:00:05;20.20;99.90
29813;DHT22;16707;48.106;11.548;2022-09-09T11:02:35;20.30;99.90
29813;DHT22;16707;48.106;11.548;2022-09-09T11:05:08;20.40;99.90
29813;DHT22;16707;48.106;11.548;2022-09-09T11:07:42;20.60;99.90
29813;DHT22;16707;48.106;11.548;2022-09-09T11:10:20;21.10;99.90
29813;DHT22;16707;48.106;11.548;2022-09-09T11:12:56;21.40;99.90
29813;DHT22;16707;48.106;11.548;2022-09-09T11:15:31;21.40;99.90
29813;DHT22;16707;48.106;11.548;2022-09-09T11:18:04;21.50;99.90
29813;DHT22;16707;48.106;11.548;2022-09-09T11:20:38;21.60;99.90
29813;DHT22;16707;48.106;11.548;2022-09-09T11:23:17;21.70;99.90
29813;DHT22;16707;48.106;11.548;2022-09-09T11:25:53;21.70;99.90
29813;DHT22;16707;48.106;11.548;2022-09-09T11:28:46;21.80;99.90
29813;DHT22;16707;48.106;11.548;2022-09-09T11:31:37;22.00;99.90
29813;DHT22;16707;48.106;11.548;2022-09-09T11:34:38;21.70;99.90
29813;DHT22;16707;48.106;11.548;2022-09-09T11:37:17;21.90;99.90
29813;DHT22;16707;48.106;11.548;2022-09-09T11:40:20;21.80;99.90
29813;DHT22;16707;48.106;11.548;2022-09-09T11:43:02;21.90;99.90
29813;DHT22;16707;48.106;11.548;2022-09-09T11:45:34;21.60;99.90
29813;DHT22;16707;48.106;11.548;2022-09-09T11:48:05;21.60;99.80
29813;DHT22;16707;48.106;11.548;2022-09-09T11:51:00;21.90;98.80
29813;DHT22;16707;48.106;11.548;2022-09-09T11:53:48;21.90;96.10
29813;DHT22;16707;48.106;11.548;2022-09-09T11:56:28;21.70;97.10
29813;DHT22;16707;48.106;11.548;2022-09-09T11:59:04;21.60;98.60
29813;DHT22;16707;48.106;11.548;2022-09-09T12:01:37;21.80;98.00
29813;DHT22;16707;48.106;11.548;2022-09-09T12:04:28;21.90;96.70
29813;DHT22;16707;48.106;11.548;2022-09-09T12:07:00;22.10;97.40
29813;DHT22;16707;48.106;11.548;2022-09-09T12:09:42;22.40;96.50
29813;DHT22;16707;48.106;11.548;2022-09-09T12:12:34;22.40;95.00
29813;DHT22;16707;48.106;11.548;2022-09-09T12:15:24;22.30;94.30
29813;DHT22;16707;48.106;11.548;2022-09-09T12:17:55;22.30;96.00
29813;DHT22;16707;48.106;11.548;2022-09-09T12:20:31;22.50;94.00
29813;DHT22;16707;48.106;11.548;2022-09-09T12:23:23;22.60;93.70
29813;DHT22;16707;48.106;11.548;2022-09-09T12:26:08;22.60;94.70
29813;DHT22;16707;48.106;11.548;2022-09-09T12:29:10;23.10;92.40
29813;DHT22;16707;48.106;11.548;2022-09-09T12:31:48;23.00;93.00
29813;DHT22;16707;48.106;11.548;2022-09-09T12:34:31;22.80;92.70
29813;DHT22;16707;48.106;11.548;2022-09-09T12:37:06;22.70;93.70
29813;DHT22;16707;48.106;11.548;2022-09-09T12:39:40;22.70;94.10
29813;DHT22;16707;48.106;11.548;2022-09-09T12:42:21;22.80;93.20
29813;DHT22;16707;48.106;11.548;2022-09-09T12:44:55;22.60;93.90
29813;DHT22;16707;48.106;11.548;2022-09-09T12:47:32;22.50;94.50
29813;DHT22;16707;48.106;11.548;2022-09-09T12:50:02;22.70;95.00
29813;DHT22;16707;48.106;11.548;2022-09-09T12:52:31;22.60;94.10
29813;DHT22;16707;48.106;11.548;2022-09-09T12:55:02;22.90;93.70
29813;DHT22;16707;48.106;11.548;2022-09-09T12:57:34;23.10;93.30
29813;DHT22;16707;48.106;11.548;2022-09-09T13:00:14;22.80;95.00
29813;DHT22;16707;48.106;11.548;2022-09-09T13:02:50;22.60;93.40
29813;DHT22;16707;48.106;11.548;2022-09-09T13:05:23;22.50;95.40
29813;DHT22;16707;48.106;11.548;2022-09-09T13:08:00;22.50;95.10
29813;DHT22;16707;48.106;11.548;2022-09-09T13:10:31;22.30;95.40
29813;DHT22;16707;48.106;11.548;2022-09-09T13:13:04;22.40;96.90
29813;DHT22;16707;48.106;11.548;2022-09-09T13:15:37;22.50;94.10
29813;DHT22;16707;48.106;11.548;2022-09-09T13:18:06;22.50;95.20
29813;DHT22;16707;48.106;11.548;2022-09-09T13:20:38;22.50;95.00
29813;DHT22;16707;48.106;11.548;2022-09-09T13:23:09;22.50;94.50
29813;DHT22;16707;48.106;11.548;2022-09-09T13:25:39;22.30;94.50
29813;DHT22;16707;48.106;11.548;2022-09-09T13:28:20;22.50;93.60
29813;DHT22;16707;48.106;11.548;2022-09-09T13:31:00;22.40;94.60
29813;DHT22;16707;48.106;11.548;2022-09-09T13:33:33;22.30;95.30
29813;DHT22;16707;48.106;11.548;2022-09-09T13:36:06;22.30;95.30
29813;DHT22;16707;48.106;11.548;2022-09-09T13:38:40;22.10;94.00
29813;DHT22;16707;48.106;11.548;2022-09-09T13:41:34;22.00;94.70
29813;DHT22;16707;48.106;11.548;2022-09-09T13:44:21;21.80;96.60
29813;DHT22;16707;48.106;11.548;2022-09-09T13:47:03;21.40;98.00
29813;DHT22;16707;48.106;11.548;2022-09-09T13:49:32;21.10;99.80
29813;DHT22;16707;48.106;11.548;2022-09-09T13:52:08;21.10;99.90
29813;DHT22;16707;48.106;11.548;2022-09-09T13:54:49;21.10;99.90
29813;DHT22;16707;48.106;11.548;2022-09-09T13:57:23;20.90;99.90
29813;DHT22;16707;48.106;11.548;2022-09-09T13:59:55;20.80;99.90
29813;DHT22;16707;48.106;11.548;2022-09-09T14:02:26;20.70;99.90
29813;DHT22;16707;48.106;11.548;2022-09-09T14:04:59;20.60;99.90
29813;DHT22;16707;48.106;11.548;2022-09-09T14:07:27;20.50;99.90
29813;DHT22;16707;48.106;11.548;2022-09-09T14:09:54;20.60;99.90
29813;DHT22;16707;48.106;11.548;2022-09-09T14:12:26;20.70;99.90
29813;DHT22;16707;48.106;11.548;2022-09-09T14:14:59;20.80;99.90
29813;DHT22;16707;48.106;11.548;2022-09-09T14:17:30;20.60;99.90
29813;DHT22;16707;48.106;11.548;2022-09-09T14:19:59;20.50;99.90
29813;DHT22;16707;48.106;11.548;2022-09-09T14:22:28;20.50;99.90
29813;DHT22;16707;48.106;11.548;2022-09-09T14:24:57;20.80;99.90
29813;DHT22;16707;48.106;11.548;2022-09-09T14:27:32;20.80;99.90
29813;DHT22;16707;48.106;11.548;2022-09-09T14:30:05;20.70;99.90
29813;DHT22;16707;48.106;11.548;2022-09-09T14:32:35;20.50;99.90
29813;DHT22;16707;48.106;11.548;2022-09-09T14:35:08;20.40;99.90
29813;DHT22;16707;48.106;11.548;2022-09-09T14:37:35;20.30;99.90
29813;DHT22;16707;48.106;11.548;2022-09-09T14:40:05;20.30;99.90
29813;DHT22;16707;48.106;11.548;2022-09-09T14:42:34;20.40;99.90
29813;DHT22;16707;48.106;11.548;2022-09-09T14:45:01;20.40;99.90
29813;DHT22;16707;48.106;11.548;2022-09-09T14:47:29;20.40;99.90
29813;DHT22;16707;48.106;11.548;2022-09-09T14:49:59;20.30;99.90
29813;DHT22;16707;48.106;11.548;2022-09-09T14:52:30;20.30;99.90
29813;DHT22;16707;48.106;11.548;2022-09-09T14:54:57;20.30;99.90
29813;DHT22;16707;48.106;11.548;2022-09-09T14:57:27;20.30;99.90
29813;DHT22;16707;48.106;11.548;2022-09-09T14:59:54;20.10;99.90
29813;DHT22;16707;48.106;11.548;2022-09-09T15:02:25;19.90;99.90
29813;DHT22;16707;48.106;11.548;2022-09-09T15:04:52;19.70;99.90
29813;DHT22;16707;48.106;11.548;2022-09-09T15:07:27;19.80;99.90
29813;DHT22;16707;48.106;11.548;2022-09-09T15:09:57;19.70;99.90
29813;DHT22;16707;48.106;11.548;2022-09-09T15:12:25;19.90;99.90
29813;DHT22;16707;48.106;11.548;2022-09-09T15:14:54;19.90;99.90
29813;DHT22;16707;48.106;11.548;2022-09-09T15:17:21;20.10;99.90
29813;DHT22;16707;48.106;11.548;2022-09-09T15:19:50;20.00;99.90
29813;DHT22;16707;48.106;11.548;2022-09-09T15:22:17;19.90;99.90
29813;DHT22;16707;48.106;11.548;2022-09-09T15:24:47;19.80;99.90
29813;DHT22;16707;48.106;11.548;2022-09-09T15:27:14;19.80;99.90
29813;DHT22;16707;48.106;11.548;2022-09-09T15:29:42;19.70;99.90
29813;DHT22;16707;48.106;11.548;2022-09-09T15:32:12;19.90;99.90
29813;DHT22;16707;48.106;11.548;2022-09-09T15:34:39;19.70;99.90
29813;DHT22;16707;48.106;11.548;2022-09-09T15:37:06;19.70;99.90
29813;DHT22;16707;48.106;11.548;2022-09-09T15:39:46;19.70;99.90
29813;DHT22;16707;48.106;11.548;2022-09-09T15:42:14;19.60;99.90
29813;DHT22;16707;48.106;11.548;2022-09-09T15:44:43;19.50;99.90
29813;DHT22;16707;48.106;11.548;2022-09-09T15:47:14;19.40;99.90
29813;DHT22;16707;48.106;11.548;2022-09-09T15:49:43;19.50;99.90
29813;DHT22;16707;48.106;11.548;2022-09-09T15:52:10;19.70;99.90
29813;DHT22;16707;48.106;11.548;2022-09-09T15:54:38;19.90;99.90
29813;DHT22;16707;48.106;11.548;2022-09-09T15:57:15;20.00;99.90
29813;DHT22;16707;48.106;11.548;2022-09-09T15:59:43;20.10;99.90
29813;DHT22;16707;48.106;11.548;2022-09-09T16:02:14;20.10;99.90
29813;DHT22;16707;48.106;11.548;2022-09-09T16:04:48;20.10;99.90
29813;DHT22;16707;48.106;11.548;2022-09-09T16:07:19;19.90;99.90